sensor_id;sensor_type;location;lat;lon;timestamp;pressure;altitude;pressure_sealevel;temperature;humidity
68141;BME280;54941;52.220;104.306;2022-07-05T00:01:24;95357.03;;;16.41;77.59
68141;BME280;54941;52.220;104.306;2022-07-05T00:03:50;95361.16;;;16.58;77.42
68141;BME280;54941;52.220;104.306;2022-07-05T00:06:16;95355.13;;;16.67;76.68
68141;BME280;54941;52.220;104.306;2022-07-05T00:08:43;95355.81;;;16.88;76.61
68141;BME280;54941;52.220;104.306;2022-07-05T00:11:09;95352.13;;;16.99;74.98
68141;BME280;54941;52.220;104.306;2022-07-05T00:13:35;95340.41;;;17.35;73.94
68141;BME280;54941;52.220;104.306;2022-07-05T00:16:01;95339.22;;;17.57;73.19
68141;BME280;54941;52.220;104.306;2022-07-05T00:18:27;95345.72;;;17.59;72.27
68141;BME280;54941;52.220;104.306;2022-07-05T00:20:53;95343.50;;;17.76;72.04
68141;BME280;54941;52.220;104.306;2022-07-05T00:23:19;95338.81;;;18.02;71.15
68141;BME280;54941;52.220;104.306;2022-07-05T00:25:45;95338.69;;;17.55;71.69
68141;BME280;54941;52.220;104.306;2022-07-05T00:28:11;95338.97;;;17.87;71.39
68141;BME280;54941;52.220;104.306;2022-07-05T00:30:37;95338.13;;;17.91;70.68
68141;BME280;54941;52.220;104.306;2022-07-05T00:33:03;95339.66;;;18.21;69.06
68141;BME280;54941;52.220;104.306;2022-07-05T00:35:30;95345.41;;;18.42;69.32
68141;BME280;54941;52.220;104.306;2022-07-05T00:37:58;95344.31;;;19.28;67.15
68141;BME280;54941;52.220;104.306;2022-07-05T00:40:24;95343.88;;;20.59;61.97
68141;BME280;54941;52.220;104.306;2022-07-05T00:42:50;95350.22;;;21.21;61.00
68141;BME280;54941;52.220;104.306;2022-07-05T00:45:16;95350.06;;;20.90;60.52
68141;BME280;54941;52.220;104.306;2022-07-05T00:47:44;95353.56;;;20.85;60.21
68141;BME280;54941;52.220;104.306;2022-07-05T00:50:10;95341.03;;;21.32;58.76
68141;BME280;54941;52.220;104.306;2022-07-05T00:52:36;95352.47;;;21.36;58.44
68141;BME280;54941;52.220;104.306;2022-07-05T00:55:02;95353.09;;;20.56;60.74
68141;BME280;54941;52.220;104.306;2022-07-05T00:57:29;95356.31;;;20.39;60.50
68141;BME280;54941;52.220;104.306;2022-07-05T00:59:56;95346.09;;;19.65;63.09
68141;BME280;54941;52.220;104.306;2022-07-05T01:02:22;95350.31;;;19.93;62.30
68141;BME280;54941;52.220;104.306;2022-07-05T01:04:49;95352.59;;;19.67;62.79
68141;BME280;54941;52.220;104.306;2022-07-05T01:07:18;95358.41;;;19.64;63.44
68141;BME280;54941;52.220;104.306;2022-07-05T01:09:45;95359.03;;;19.37;64.66
68141;BME280;54941;52.220;104.306;2022-07-05T01:12:11;95365.22;;;19.28;64.32
68141;BME280;54941;52.220;104.306;2022-07-05T01:14:37;95364.56;;;19.36;64.85
68141;BME280;54941;52.220;104.306;2022-07-05T01:17:03;95360.09;;;19.36;64.88
68141;BME280;54941;52.220;104.306;2022-07-05T01:19:30;95359.03;;;19.37;64.06
68141;BME280;54941;52.220;104.306;2022-07-05T01:21:57;95365.56;;;19.40;64.30
68141;BME280;54941;52.220;104.306;2022-07-05T01:24:26;95367.84;;;19.47;64.07
68141;BME280;54941;52.220;104.306;2022-07-05T01:26:53;95374.72;;;19.37;63.53
68141;BME280;54941;52.220;104.306;2022-07-05T01:29:19;95364.16;;;18.91;64.90
68141;BME280;54941;52.220;104.306;2022-07-05T01:31:45;95366.41;;;19.17;64.41
68141;BME280;54941;52.220;104.306;2022-07-05T01:34:11;95369.50;;;19.19;64.53
68141;BME280;54941;52.220;104.306;2022-07-05T01:36:38;95363.19;;;19.76;63.38
68141;BME280;54941;52.220;104.306;2022-07-05T01:39:06;95371.34;;;19.56;64.03
68141;BME280;54941;52.220;104.306;2022-07-05T01:41:33;95370.44;;;19.47;64.21
68141;BME280;54941;52.220;104.306;2022-07-05T01:43:59;95368.03;;;19.50;64.17
68141;BME280;54941;52.220;104.306;2022-07-05T01:46:29;95377.16;;;19.53;64.55
68141;BME280;54941;52.220;104.306;2022-07-05T01:48:56;95374.31;;;18.93;65.11
68141;BME280;54941;52.220;104.306;2022-07-05T01:51:33;95368.09;;;19.08;64.87
68141;BME280;54941;52.220;104.306;2022-07-05T01:54:00;95375.25;;;19.02;65.36
68141;BME280;54941;52.220;104.306;2022-07-05T01:56:26;95379.75;;;19.15;65.31
68141;BME280;54941;52.220;104.306;2022-07-05T01:58:53;95377.75;;;18.70;66.47
68141;BME280;54941;52.220;104.306;2022-07-05T02:01:36;95384.38;;;18.81;66.79
68141;BME280;54941;52.220;104.306;2022-07-05T02:04:04;95385.25;;;18.53;67.35
68141;BME280;54941;52.220;104.306;2022-07-05T02:06:31;95387.75;;;17.81;69.68
68141;BME280;54941;52.220;104.306;2022-07-05T02:08:59;95380.56;;;17.68;70.33
68141;BME280;54941;52.220;104.306;2022-07-05T02:11:25;95380.47;;;18.07;69.82
68141;BME280;54941;52.220;104.306;2022-07-05T02:13:51;95380.72;;;18.11;69.11
68141;BME280;54941;52.220;104.306;2022-07-05T02:16:37;95381.25;;;18.08;69.19
68141;BME280;54941;52.220;104.306;2022-07-05T02:19:04;95379.84;;;18.20;69.36
68141;BME280;54941;52.220;104.306;2022-07-05T02:21:30;95381.41;;;18.21;68.52
68141;BME280;54941;52.220;104.306;2022-07-05T02:23:56;95383.16;;;18.02;69.29
68141;BME280;54941;52.220;104.306;2022-07-05T02:26:22;95385.53;;;17.98;69.86
68141;BME280;54941;52.220;104.306;2022-07-05T02:28:49;95381.53;;;18.30;69.04
68141;BME280;54941;52.220;104.306;2022-07-05T02:31:15;95382.66;;;18.24;68.60
68141;BME280;54941;52.220;104.306;2022-07-05T02:33:41;95387.44;;;18.17;69.08
68141;BME280;54941;52.220;104.306;2022-07-05T02:36:11;95388.06;;;18.32;67.93
68141;BME280;54941;52.220;104.306;2022-07-05T02:38:37;95391.03;;;18.44;68.05
68141;BME280;54941;52.220;104.306;2022-07-05T02:41:05;95382.50;;;18.63;67.73
68141;BME280;54941;52.220;104.306;2022-07-05T02:43:32;95387.91;;;18.71;67.32
68141;BME280;54941;52.220;104.306;2022-07-05T02:45:58;95386.66;;;18.16;68.40
68141;BME280;54941;52.220;104.306;2022-07-05T02:48:24;95379.16;;;18.33;68.34
68141;BME280;54941;52.220;104.306;2022-07-05T02:50:50;95385.03;;;18.44;68.50
68141;BME280;54941;52.220;104.306;2022-07-05T02:53:16;95380.06;;;18.71;67.27
68141;BME280;54941;52.220;104.306;2022-07-05T02:55:42;95385.16;;;18.81;67.07
68141;BME280;54941;52.220;104.306;2022-07-05T02:58:09;95387.09;;;18.94;67.41
68141;BME280;54941;52.220;104.306;2022-07-05T03:00:35;95384.41;;;18.57;67.84
68141;BME280;54941;52.220;104.306;2022-07-05T03:03:01;95378.34;;;18.38;68.85
68141;BME280;54941;52.220;104.306;2022-07-05T03:05:28;95377.84;;;18.60;68.48
68141;BME280;54941;52.220;104.306;2022-07-05T03:07:54;95375.66;;;19.09;66.77
68141;BME280;54941;52.220;104.306;2022-07-05T03:10:20;95378.94;;;19.71;64.72
68141;BME280;54941;52.220;104.306;2022-07-05T03:12:46;95367.84;;;20.38;62.37
68141;BME280;54941;52.220;104.306;2022-07-05T03:15:12;95375.00;;;20.87;60.41
68141;BME280;54941;52.220;104.306;2022-07-05T03:17:38;95367.03;;;20.93;60.03
68141;BME280;54941;52.220;104.306;2022-07-05T03:20:05;95365.44;;;20.42;61.84
68141;BME280;54941;52.220;104.306;2022-07-05T03:22:31;95365.94;;;19.98;62.79
68141;BME280;54941;52.220;104.306;2022-07-05T03:24:57;95371.41;;;19.69;63.88
68141;BME280;54941;52.220;104.306;2022-07-05T03:27:24;95379.31;;;19.64;64.61
68141;BME280;54941;52.220;104.306;2022-07-05T03:29:50;95368.56;;;19.98;63.28
68141;BME280;54941;52.220;104.306;2022-07-05T03:32:16;95367.28;;;20.28;63.32
68141;BME280;54941;52.220;104.306;2022-07-05T03:34:43;95370.38;;;20.57;62.27
68141;BME280;54941;52.220;104.306;2022-07-05T03:37:09;95374.56;;;21.08;61.29
68141;BME280;54941;52.220;104.306;2022-07-05T03:39:35;95369.81;;;21.46;58.81
68141;BME280;54941;52.220;104.306;2022-07-05T03:42:01;95365.94;;;21.43;57.22
68141;BME280;54941;52.220;104.306;2022-07-05T03:44:27;95356.53;;;21.42;56.75
68141;BME280;54941;52.220;104.306;2022-07-05T03:46:53;95366.16;;;21.77;56.05
68141;BME280;54941;52.220;104.306;2022-07-05T03:49:19;95364.69;;;21.63;57.23
68141;BME280;54941;52.220;104.306;2022-07-05T03:51:45;95361.09;;;21.01;59.06
68141;BME280;54941;52.220;104.306;2022-07-05T03:54:11;95361.19;;;20.96;59.63
68141;BME280;54941;52.220;104.306;2022-07-05T03:56:37;95359.41;;;20.69;58.06
68141;BME280;54941;52.220;104.306;2022-07-05T03:59:03;95356.16;;;22.41;53.08
68141;BME280;54941;52.220;104.306;2022-07-05T04:01:29;95360.31;;;22.99;50.36
68141;BME280;54941;52.220;104.306;2022-07-05T04:03:55;95358.66;;;23.28;50.31
68141;BME280;54941;52.220;104.306;2022-07-05T04:06:21;95348.53;;;21.92;52.97
68141;BME280;54941;52.220;104.306;2022-07-05T04:08:47;95352.63;;;21.62;54.21
68141;BME280;54941;52.220;104.306;2022-07-05T04:11:13;95352.03;;;22.09;53.39
68141;BME280;54941;52.220;104.306;2022-07-05T04:13:39;95356.63;;;21.81;54.18
68141;BME280;54941;52.220;104.306;2022-07-05T04:16:05;95359.94;;;21.43;55.31
68141;BME280;54941;52.220;104.306;2022-07-05T04:18:31;95363.69;;;21.72;55.86
68141;BME280;54941;52.220;104.306;2022-07-05T04:20:58;95351.28;;;21.42;55.61
68141;BME280;54941;52.220;104.306;2022-07-05T04:23:24;95349.66;;;21.32;56.98
68141;BME280;54941;52.220;104.306;2022-07-05T04:25:50;95351.28;;;21.64;56.25
68141;BME280;54941;52.220;104.306;2022-07-05T04:28:16;95346.22;;;21.46;56.20
68141;BME280;54941;52.220;104.306;2022-07-05T04:30:42;95347.91;;;22.25;55.00
68141;BME280;54941;52.220;104.306;2022-07-05T04:33:08;95347.84;;;23.56;51.43
68141;BME280;54941;52.220;104.306;2022-07-05T04:35:34;95340.72;;;24.58;48.82
68141;BME280;54941;52.220;104.306;2022-07-05T04:38:00;95336.75;;;24.72;47.67
68141;BME280;54941;52.220;104.306;2022-07-05T04:40:26;95332.72;;;24.75;47.71
68141;BME280;54941;52.220;104.306;2022-07-05T04:42:52;95334.00;;;23.85;48.80
68141;BME280;54941;52.220;104.306;2022-07-05T04:45:19;95336.25;;;23.48;50.40
68141;BME280;54941;52.220;104.306;2022-07-05T04:47:45;95341.94;;;22.99;52.82
68141;BME280;54941;52.220;104.306;2022-07-05T04:50:11;95332.81;;;23.22;51.00
68141;BME280;54941;52.220;104.306;2022-07-05T04:52:37;95332.69;;;23.53;49.85
68141;BME280;54941;52.220;104.306;2022-07-05T04:55:03;95325.56;;;23.27;50.48
68141;BME280;54941;52.220;104.306;2022-07-05T04:57:40;95325.41;;;23.15;50.41
68141;BME280;54941;52.220;104.306;2022-07-05T05:00:07;95327.63;;;22.57;52.81
68141;BME280;54941;52.220;104.306;2022-07-05T05:02:34;95315.34;;;21.65;54.39
68141;BME280;54941;52.220;104.306;2022-07-05T05:05:00;95321.44;;;21.82;54.08
68141;BME280;54941;52.220;104.306;2022-07-05T05:07:27;95321.13;;;21.84;54.59
68141;BME280;54941;52.220;104.306;2022-07-05T05:09:53;95323.66;;;22.68;52.88
68141;BME280;54941;52.220;104.306;2022-07-05T05:12:19;95321.69;;;23.59;51.25
68141;BME280;54941;52.220;104.306;2022-07-05T05:14:45;95328.91;;;24.35;48.83
68141;BME280;54941;52.220;104.306;2022-07-05T05:17:11;95326.06;;;24.40;48.57
68141;BME280;54941;52.220;104.306;2022-07-05T05:19:37;95326.50;;;23.49;49.32
68141;BME280;54941;52.220;104.306;2022-07-05T05:22:04;95317.56;;;22.59;52.12
68141;BME280;54941;52.220;104.306;2022-07-05T05:24:30;95314.81;;;21.85;54.59
68141;BME280;54941;52.220;104.306;2022-07-05T05:26:56;95312.47;;;21.75;55.65
68141;BME280;54941;52.220;104.306;2022-07-05T05:29:22;95318.56;;;22.23;52.23
68141;BME280;54941;52.220;104.306;2022-07-05T05:31:48;95312.94;;;22.56;51.60
68141;BME280;54941;52.220;104.306;2022-07-05T05:34:14;95313.03;;;23.07;52.01
68141;BME280;54941;52.220;104.306;2022-07-05T05:36:40;95311.22;;;23.89;51.13
68141;BME280;54941;52.220;104.306;2022-07-05T05:39:06;95309.16;;;24.49;48.49
68141;BME280;54941;52.220;104.306;2022-07-05T05:41:32;95304.38;;;24.43;47.95
68141;BME280;54941;52.220;104.306;2022-07-05T05:43:58;95297.19;;;23.76;49.29
68141;BME280;54941;52.220;104.306;2022-07-05T05:46:25;95298.28;;;24.21;47.94
68141;BME280;54941;52.220;104.306;2022-07-05T05:48:51;95295.44;;;24.64;45.54
68141;BME280;54941;52.220;104.306;2022-07-05T05:51:17;95286.28;;;24.62;47.54
68141;BME280;54941;52.220;104.306;2022-07-05T05:53:43;95285.16;;;25.13;45.44
68141;BME280;54941;52.220;104.306;2022-07-05T05:56:09;95292.34;;;24.33;46.07
68141;BME280;54941;52.220;104.306;2022-07-05T05:58:36;95285.53;;;23.86;47.82
68141;BME280;54941;52.220;104.306;2022-07-05T06:01:02;95282.03;;;24.69;46.03
68141;BME280;54941;52.220;104.306;2022-07-05T06:03:29;95274.94;;;24.03;46.92
68141;BME280;54941;52.220;104.306;2022-07-05T06:05:55;95278.22;;;23.53;47.89
68141;BME280;54941;52.220;104.306;2022-07-05T06:08:22;95287.78;;;23.41;49.41
68141;BME280;54941;52.220;104.306;2022-07-05T06:10:48;95291.81;;;23.21;48.47
68141;BME280;54941;52.220;104.306;2022-07-05T06:15:42;95278.78;;;23.67;46.36
68141;BME280;54941;52.220;104.306;2022-07-05T06:18:10;95282.16;;;24.23;45.74
68141;BME280;54941;52.220;104.306;2022-07-05T06:20:37;95273.72;;;23.45;48.18
68141;BME280;54941;52.220;104.306;2022-07-05T06:23:05;95278.22;;;23.53;48.59
68141;BME280;54941;52.220;104.306;2022-07-05T06:25:33;95282.38;;;23.37;48.72
68141;BME280;54941;52.220;104.306;2022-07-05T06:28:01;95274.81;;;24.37;46.22
68141;BME280;54941;52.220;104.306;2022-07-05T06:30:28;95270.84;;;24.72;44.75
68141;BME280;54941;52.220;104.306;2022-07-05T06:32:55;95268.81;;;24.57;43.99
68141;BME280;54941;52.220;104.306;2022-07-05T06:35:22;95265.41;;;24.78;42.44
68141;BME280;54941;52.220;104.306;2022-07-05T06:37:53;95255.03;;;24.72;44.41
68141;BME280;54941;52.220;104.306;2022-07-05T06:40:22;95247.03;;;24.90;44.23
68141;BME280;54941;52.220;104.306;2022-07-05T06:42:49;95248.78;;;24.36;44.47
68141;BME280;54941;52.220;104.306;2022-07-05T06:45:16;95248.28;;;24.42;45.17
68141;BME280;54941;52.220;104.306;2022-07-05T06:47:42;95239.56;;;24.71;45.55
68141;BME280;54941;52.220;104.306;2022-07-05T06:50:08;95242.53;;;24.40;45.75
68141;BME280;54941;52.220;104.306;2022-07-05T06:52:34;95242.56;;;24.82;43.61
68141;BME280;54941;52.220;104.306;2022-07-05T06:55:01;95237.81;;;24.54;44.28
68141;BME280;54941;52.220;104.306;2022-07-05T06:57:30;95240.06;;;24.64;44.50
68141;BME280;54941;52.220;104.306;2022-07-05T06:59:56;95238.59;;;24.26;43.93
68141;BME280;54941;52.220;104.306;2022-07-05T07:02:22;95226.31;;;23.71;44.75
68141;BME280;54941;52.220;104.306;2022-07-05T07:04:49;95232.53;;;24.34;45.52
68141;BME280;54941;52.220;104.306;2022-07-05T07:07:15;95231.97;;;24.49;44.48
68141;BME280;54941;52.220;104.306;2022-07-05T07:09:41;95225.53;;;23.62;46.77
68141;BME280;54941;52.220;104.306;2022-07-05T07:12:07;95220.09;;;23.75;46.48
68141;BME280;54941;52.220;104.306;2022-07-05T07:14:34;95217.91;;;23.22;47.10
68141;BME280;54941;52.220;104.306;2022-07-05T07:17:00;95224.59;;;23.75;47.94
68141;BME280;54941;52.220;104.306;2022-07-05T07:19:26;95222.41;;;24.06;46.30
68141;BME280;54941;52.220;104.306;2022-07-05T07:21:52;95220.81;;;24.22;45.36
68141;BME280;54941;52.220;104.306;2022-07-05T07:24:18;95219.06;;;23.97;45.95
68141;BME280;54941;52.220;104.306;2022-07-05T07:26:44;95230.47;;;24.39;45.64
68141;BME280;54941;52.220;104.306;2022-07-05T07:29:10;95227.91;;;23.93;46.63
68141;BME280;54941;52.220;104.306;2022-07-05T07:31:36;95231.19;;;23.90;45.61
68141;BME280;54941;52.220;104.306;2022-07-05T07:34:02;95226.56;;;23.87;46.49
68141;BME280;54941;52.220;104.306;2022-07-05T07:36:28;95224.53;;;23.46;47.59
68141;BME280;54941;52.220;104.306;2022-07-05T07:38:54;95230.94;;;23.02;48.29
68141;BME280;54941;52.220;104.306;2022-07-05T07:41:20;95219.50;;;23.61;46.16
68141;BME280;54941;52.220;104.306;2022-07-05T07:43:46;95220.91;;;23.97;45.49
68141;BME280;54941;52.220;104.306;2022-07-05T07:46:12;95224.53;;;24.21;45.75
68141;BME280;54941;52.220;104.306;2022-07-05T07:48:38;95223.72;;;24.30;44.56
68141;BME280;54941;52.220;104.306;2022-07-05T07:51:04;95206.97;;;23.67;45.08
68141;BME280;54941;52.220;104.306;2022-07-05T07:53:30;95214.59;;;23.89;45.06
68141;BME280;54941;52.220;104.306;2022-07-05T07:55:57;95218.72;;;24.37;44.98
68141;BME280;54941;52.220;104.306;2022-07-05T07:58:23;95209.88;;;24.03;45.63
68141;BME280;54941;52.220;104.306;2022-07-05T08:00:49;95219.13;;;23.42;47.69
68141;BME280;54941;52.220;104.306;2022-07-05T08:03:15;95217.19;;;22.79;49.56
68141;BME280;54941;52.220;104.306;2022-07-05T08:05:41;95218.50;;;22.33;50.92
68141;BME280;54941;52.220;104.306;2022-07-05T08:08:07;95222.34;;;22.36;51.43
68141;BME280;54941;52.220;104.306;2022-07-05T08:10:33;95216.53;;;22.73;50.69
68141;BME280;54941;52.220;104.306;2022-07-05T08:12:59;95217.47;;;22.77;49.84
68141;BME280;54941;52.220;104.306;2022-07-05T08:15:25;95220.22;;;22.55;50.52
68141;BME280;54941;52.220;104.306;2022-07-05T08:17:51;95222.03;;;22.20;51.45
68141;BME280;54941;52.220;104.306;2022-07-05T08:20:17;95216.22;;;22.49;50.05
68141;BME280;54941;52.220;104.306;2022-07-05T08:22:43;95216.84;;;22.80;49.14
68141;BME280;54941;52.220;104.306;2022-07-05T08:25:09;95216.09;;;23.06;48.53
68141;BME280;54941;52.220;104.306;2022-07-05T08:27:36;95213.91;;;22.99;47.54
68141;BME280;54941;52.220;104.306;2022-07-05T08:30:03;95217.84;;;23.40;49.51
68141;BME280;54941;52.220;104.306;2022-07-05T08:32:30;95221.84;;;23.63;47.88
68141;BME280;54941;52.220;104.306;2022-07-05T08:34:56;95213.44;;;23.69;45.99
68141;BME280;54941;52.220;104.306;2022-07-05T08:37:22;95211.38;;;23.28;47.50
68141;BME280;54941;52.220;104.306;2022-07-05T08:39:48;95228.56;;;23.17;47.26
68141;BME280;54941;52.220;104.306;2022-07-05T08:42:14;95231.78;;;21.89;51.56
68141;BME280;54941;52.220;104.306;2022-07-05T08:44:42;95226.50;;;20.97;54.35
68141;BME280;54941;52.220;104.306;2022-07-05T08:47:10;95235.88;;;20.53;56.43
68141;BME280;54941;52.220;104.306;2022-07-05T08:49:39;95237.06;;;20.20;57.29
68141;BME280;54941;52.220;104.306;2022-07-05T08:52:09;95230.47;;;19.81;58.07
68141;BME280;54941;52.220;104.306;2022-07-05T08:54:36;95224.50;;;19.95;57.94
68141;BME280;54941;52.220;104.306;2022-07-05T08:57:02;95214.31;;;19.79;58.65
68141;BME280;54941;52.220;104.306;2022-07-05T08:59:28;95225.94;;;20.01;57.82
68141;BME280;54941;52.220;104.306;2022-07-05T09:01:55;95222.81;;;20.12;57.81
68141;BME280;54941;52.220;104.306;2022-07-05T09:04:24;95229.69;;;19.81;58.83
68141;BME280;54941;52.220;104.306;2022-07-05T09:06:57;95225.56;;;19.93;57.97
68141;BME280;54941;52.220;104.306;2022-07-05T09:09:27;95228.84;;;19.58;59.43
68141;BME280;54941;52.220;104.306;2022-07-05T09:11:53;95232.03;;;19.69;58.72
68141;BME280;54941;52.220;104.306;2022-07-05T09:14:23;95215.69;;;19.77;58.87
68141;BME280;54941;52.220;104.306;2022-07-05T09:16:50;95227.97;;;20.04;58.20
68141;BME280;54941;52.220;104.306;2022-07-05T09:19:17;95234.44;;;20.33;57.42
68141;BME280;54941;52.220;104.306;2022-07-05T09:21:43;95227.19;;;20.03;57.42
68141;BME280;54941;52.220;104.306;2022-07-05T09:24:11;95236.00;;;20.07;57.65
68141;BME280;54941;52.220;104.306;2022-07-05T09:29:12;95222.91;;;20.34;57.43
68141;BME280;54941;52.220;104.306;2022-07-05T09:31:42;95224.19;;;20.73;55.77
68141;BME280;54941;52.220;104.306;2022-07-05T09:34:10;95227.28;;;20.75;56.02
68141;BME280;54941;52.220;104.306;2022-07-05T09:36:56;95224.44;;;20.49;55.82
68141;BME280;54941;52.220;104.306;2022-07-05T09:42:12;95220.63;;;20.55;55.96
68141;BME280;54941;52.220;104.306;2022-07-05T09:44:45;95214.06;;;20.44;56.50
68141;BME280;54941;52.220;104.306;2022-07-05T09:47:14;95212.63;;;20.74;55.95
68141;BME280;54941;52.220;104.306;2022-07-05T09:49:53;95212.88;;;20.86;55.90
68141;BME280;54941;52.220;104.306;2022-07-05T09:52:31;95215.59;;;21.03;56.53
68141;BME280;54941;52.220;104.306;2022-07-05T09:57:29;95209.47;;;20.85;56.38
68141;BME280;54941;52.220;104.306;2022-07-05T10:00:13;95210.78;;;20.74;56.25
68141;BME280;54941;52.220;104.306;2022-07-05T10:02:45;95209.78;;;20.84;55.69
68141;BME280;54941;52.220;104.306;2022-07-05T10:07:47;95205.59;;;20.83;55.18
68141;BME280;54941;52.220;104.306;2022-07-05T10:13:00;95212.75;;;20.69;56.01
68141;BME280;54941;52.220;104.306;2022-07-05T10:15:30;95210.31;;;20.72;56.26
68141;BME280;54941;52.220;104.306;2022-07-05T10:18:06;95207.28;;;20.79;56.00
68141;BME280;54941;52.220;104.306;2022-07-05T10:20:43;95214.47;;;20.96;55.75
68141;BME280;54941;52.220;104.306;2022-07-05T10:23:12;95211.09;;;20.73;55.92
68141;BME280;54941;52.220;104.306;2022-07-05T10:25:47;95213.41;;;20.74;56.25
68141;BME280;54941;52.220;104.306;2022-07-05T10:28:15;95204.84;;;20.82;56.14
68141;BME280;54941;52.220;104.306;2022-07-05T10:30:44;95210.44;;;20.89;56.44
68141;BME280;54941;52.220;104.306;2022-07-05T10:33:11;95213.66;;;20.86;56.99
68141;BME280;54941;52.220;104.306;2022-07-05T10:35:42;95216.69;;;20.80;57.27
68141;BME280;54941;52.220;104.306;2022-07-05T10:38:11;95216.31;;;20.73;57.75
68141;BME280;54941;52.220;104.306;2022-07-05T10:40:41;95222.91;;;20.70;58.32
68141;BME280;54941;52.220;104.306;2022-07-05T10:43:08;95227.16;;;20.80;58.48
68141;BME280;54941;52.220;104.306;2022-07-05T10:45:38;95224.19;;;20.73;58.89
68141;BME280;54941;52.220;104.306;2022-07-05T10:48:12;95220.59;;;20.69;58.77
68141;BME280;54941;52.220;104.306;2022-07-05T10:53:11;95218.16;;;20.36;59.71
68141;BME280;54941;52.220;104.306;2022-07-05T11:04:05;95222.03;;;20.12;60.28
68141;BME280;54941;52.220;104.306;2022-07-05T11:06:40;95227.97;;;20.17;60.29
68141;BME280;54941;52.220;104.306;2022-07-05T11:11:36;95229.44;;;20.10;60.81
68141;BME280;54941;52.220;104.306;2022-07-05T11:19:34;95227.69;;;20.05;59.87
68141;BME280;54941;52.220;104.306;2022-07-05T11:22:04;95222.13;;;20.07;60.59
68141;BME280;54941;52.220;104.306;2022-07-05T11:24:34;95223.59;;;20.13;59.95
68141;BME280;54941;52.220;104.306;2022-07-05T11:27:03;95228.84;;;19.99;59.00
68141;BME280;54941;52.220;104.306;2022-07-05T11:29:42;95223.72;;;19.94;59.22
68141;BME280;54941;52.220;104.306;2022-07-05T11:34:56;95220.22;;;19.85;56.83
68141;BME280;54941;52.220;104.306;2022-07-05T11:38:07;95220.13;;;19.76;56.58
68141;BME280;54941;52.220;104.306;2022-07-05T11:40:37;95218.31;;;19.77;56.67
68141;BME280;54941;52.220;104.306;2022-07-05T11:43:04;95229.69;;;19.81;57.06
68141;BME280;54941;52.220;104.306;2022-07-05T11:45:30;95228.53;;;19.73;57.50
68141;BME280;54941;52.220;104.306;2022-07-05T11:47:57;95229.81;;;19.76;57.57
68141;BME280;54941;52.220;104.306;2022-07-05T11:50:33;95221.97;;;19.76;57.95
68141;BME280;54941;52.220;104.306;2022-07-05T11:53:01;95228.44;;;19.78;58.46
68141;BME280;54941;52.220;104.306;2022-07-05T11:55:28;95219.75;;;19.83;58.77
68141;BME280;54941;52.220;104.306;2022-07-05T11:57:56;95218.50;;;19.80;58.39
68141;BME280;54941;52.220;104.306;2022-07-05T12:00:40;95222.25;;;19.74;58.11
68141;BME280;54941;52.220;104.306;2022-07-05T12:03:13;95222.38;;;19.69;58.24
68141;BME280;54941;52.220;104.306;2022-07-05T12:05:40;95225.06;;;19.64;59.94
68141;BME280;54941;52.220;104.306;2022-07-05T12:08:06;95222.38;;;19.69;60.59
68141;BME280;54941;52.220;104.306;2022-07-05T12:10:32;95222.91;;;19.66;60.95
68141;BME280;54941;52.220;104.306;2022-07-05T12:13:05;95222.56;;;19.73;60.88
68141;BME280;54941;52.220;104.306;2022-07-05T12:15:32;95220.88;;;19.63;60.79
68141;BME280;54941;52.220;104.306;2022-07-05T12:18:01;95229.44;;;19.69;61.15
68141;BME280;54941;52.220;104.306;2022-07-05T12:20:28;95222.06;;;19.71;61.37
68141;BME280;54941;52.220;104.306;2022-07-05T12:22:54;95227.19;;;19.62;60.14
68141;BME280;54941;52.220;104.306;2022-07-05T12:25:22;95229.69;;;19.54;61.23
68141;BME280;54941;52.220;104.306;2022-07-05T12:27:50;95229.31;;;19.47;61.71
68141;BME280;54941;52.220;104.306;2022-07-05T12:30:17;95240.97;;;19.35;61.89
68141;BME280;54941;52.220;104.306;2022-07-05T12:33:01;95236.97;;;19.24;63.24
68141;BME280;54941;52.220;104.306;2022-07-05T12:35:28;95236.47;;;18.90;68.65
68141;BME280;54941;52.220;104.306;2022-07-05T12:37:54;95238.03;;;18.72;70.22
68141;BME280;54941;52.220;104.306;2022-07-05T12:40:22;95234.78;;;18.43;72.77
68141;BME280;54941;52.220;104.306;2022-07-05T12:43:00;95236.28;;;18.07;75.20
68141;BME280;54941;52.220;104.306;2022-07-05T12:45:26;95234.63;;;17.92;77.08
68141;BME280;54941;52.220;104.306;2022-07-05T12:47:54;95235.50;;;18.06;76.53
68141;BME280;54941;52.220;104.306;2022-07-05T12:50:25;95231.47;;;17.95;77.09
68141;BME280;54941;52.220;104.306;2022-07-05T12:53:05;95236.97;;;17.70;77.47
68141;BME280;54941;52.220;104.306;2022-07-05T12:55:35;95235.88;;;17.42;78.87
68141;BME280;54941;52.220;104.306;2022-07-05T12:58:01;95235.31;;;17.21;80.25
68141;BME280;54941;52.220;104.306;2022-07-05T13:00:27;95241.41;;;17.07;81.12
68141;BME280;54941;52.220;104.306;2022-07-05T13:02:53;95242.88;;;16.84;80.99
68141;BME280;54941;52.220;104.306;2022-07-05T13:05:23;95245.59;;;16.69;82.49
68141;BME280;54941;52.220;104.306;2022-07-05T13:07:51;95236.44;;;16.76;81.83
68141;BME280;54941;52.220;104.306;2022-07-05T13:10:19;95231.56;;;16.65;81.70
68141;BME280;54941;52.220;104.306;2022-07-05T13:12:46;95232.16;;;16.51;82.37
68141;BME280;54941;52.220;104.306;2022-07-05T13:15:13;95231.16;;;16.37;83.19
68141;BME280;54941;52.220;104.306;2022-07-05T13:17:40;95228.16;;;16.15;84.09
68141;BME280;54941;52.220;104.306;2022-07-05T13:20:07;95227.19;;;16.01;84.02